Aérodrome :
LOGIN :

S'inscrire | Disclaimer

   EN    FR    IT 

 










Légende :    VFR   VFR Marginal   IFR   IFR Intensif   IFR Très Intensif
Visi : 
Plafond : 
>= 8 km
>= 3000ft
5 à 8 km
1000 à 3000 ft
1500m à 5 km
500 à 1000 ft
800 à 1500m
200 à 500 ft
< 800m
< 200 ft
Symboles :   Orages  Brouillard  Fortes neiges  Fortes précipitations  Vent > 20 kt
SIGMETs :   Divers  Orages  Givrage  Turbulence  Onde Orograph.  Cendres Volcan.







- Altitude de l'aérodrome : 144 ft
- Code IATA : PGF
- Voir les cartes d'approche


LFMP - Perpignan

DERNIER METAR :
  • 230230Z AUTO 31009KT 9999 OVC056 24/15 Q1018 NOSIG

METARs EXPIRÉS :
  • 230200Z AUTO 31008KT 9999 OVC056 24/15 Q1018
  • 230130Z AUTO 30010KT 9999 OVC058 24/15 Q1018
  • 230100Z AUTO 28004KT 250V340 9999 OVC056 24/15 Q1018
  • 230030Z AUTO 31007KT 280V350 9999 OVC056 25/15 Q1018
  • 230000Z AUTO 31007KT 290V350 9999 OVC054 25/15 Q1018

TAF TAF LFMP
Valide du 23 à 03h jusqu'au 24 à 03h UTC


230200Z 2303/2403 31011KT 9999 OVC058
TEMPO 2306/2315 CAVOK
TEMPO 2316/2319 SHRA BKN030TCU
BECMG 2319/2321 CAVOK
ATIS : +33 4 68 63 75 12
Pas de NOTAMs connus pour ce terrain.



MET'MAP, la Météo Aéronautique d'un coup d'oeil ! - Copyright ORBIFLY Décembre 2007 - Disclaimer

ORBIFLY MET'MAP TEAM :

Programmation & Développement : Alexandra Zaïnal
Conception & Développement : Baudouin d'Aumeries
Co-Programmation & Développement : Marc-Olivier Méhu
Soutien technique & logistique : Manuel Goepfert

Contact : metmap@orbifly.com




SOURCES & CREDITS :

   NOAA